sensor_id;sensor_type;location;lat;lon;timestamp;temperature;humidity
4183;DHT22;2105;52.300;9.182;2023-12-20T00:00:56;6.70;99.90
4183;DHT22;2105;52.300;9.182;2023-12-20T00:03:23;6.70;99.90
4183;DHT22;2105;52.300;9.182;2023-12-20T00:05:50;6.70;99.90
4183;DHT22;2105;52.300;9.182;2023-12-20T00:08:18;6.70;99.90
4183;DHT22;2105;52.300;9.182;2023-12-20T00:10:45;6.60;99.90
4183;DHT22;2105;52.300;9.182;2023-12-20T00:13:11;6.60;99.90
4183;DHT22;2105;52.300;9.182;2023-12-20T00:15:38;6.60;99.90
4183;DHT22;2105;52.300;9.182;2023-12-20T00:18:05;6.60;99.90
4183;DHT22;2105;52.300;9.182;2023-12-20T00:20:31;6.60;99.90
4183;DHT22;2105;52.300;9.182;2023-12-20T00:22:58;6.60;99.90
4183;DHT22;2105;52.300;9.182;2023-12-20T00:25:26;6.60;99.90
4183;DHT22;2105;52.300;9.182;2023-12-20T00:27:53;6.60;99.90
4183;DHT22;2105;52.300;9.182;2023-12-20T00:30:19;6.60;99.90
4183;DHT22;2105;52.300;9.182;2023-12-20T00:32:46;6.60;99.90
4183;DHT22;2105;52.300;9.182;2023-12-20T00:35:13;6.60;99.90
4183;DHT22;2105;52.300;9.182;2023-12-20T00:37:39;6.60;99.90
4183;DHT22;2105;52.300;9.182;2023-12-20T00:40:07;6.60;99.90
4183;DHT22;2105;52.300;9.182;2023-12-20T00:42:35;6.60;99.90
4183;DHT22;2105;52.300;9.182;2023-12-20T00:45:02;6.50;99.90
4183;DHT22;2105;52.300;9.182;2023-12-20T00:47:30;6.50;99.90
4183;DHT22;2105;52.300;9.182;2023-12-20T00:49:57;6.50;99.90
4183;DHT22;2105;52.300;9.182;2023-12-20T00:52:24;6.50;99.90
4183;DHT22;2105;52.300;9.182;2023-12-20T00:54:51;6.50;99.90
4183;DHT22;2105;52.300;9.182;2023-12-20T00:57:18;6.50;99.90
4183;DHT22;2105;52.300;9.182;2023-12-20T00:59:46;6.50;99.90
4183;DHT22;2105;52.300;9.182;2023-12-20T01:02:12;6.50;99.90
4183;DHT22;2105;52.300;9.182;2023-12-20T01:04:39;6.50;99.90
4183;DHT22;2105;52.300;9.182;2023-12-20T01:07:05;6.50;99.90
4183;DHT22;2105;52.300;9.182;2023-12-20T01:09:32;6.50;99.90
4183;DHT22;2105;52.300;9.182;2023-12-20T01:11:59;6.50;99.90
4183;DHT22;2105;52.300;9.182;2023-12-20T01:14:25;6.60;99.90
4183;DHT22;2105;52.300;9.182;2023-12-20T01:16:53;6.60;99.90
4183;DHT22;2105;52.300;9.182;2023-12-20T01:19:20;6.60;99.90
4183;DHT22;2105;52.300;9.182;2023-12-20T01:21:47;6.60;99.90
4183;DHT22;2105;52.300;9.182;2023-12-20T01:24:13;6.60;99.90
4183;DHT22;2105;52.300;9.182;2023-12-20T01:26:40;6.60;99.90
4183;DHT22;2105;52.300;9.182;2023-12-20T01:29:06;6.60;99.90
4183;DHT22;2105;52.300;9.182;2023-12-20T01:31:33;6.60;99.90
4183;DHT22;2105;52.300;9.182;2023-12-20T01:34:01;6.60;99.90
4183;DHT22;2105;52.300;9.182;2023-12-20T01:36:28;6.60;99.90
4183;DHT22;2105;52.300;9.182;2023-12-20T01:38:54;6.50;99.90
4183;DHT22;2105;52.300;9.182;2023-12-20T01:41:21;6.50;99.90
4183;DHT22;2105;52.300;9.182;2023-12-20T01:43:47;6.40;99.90
4183;DHT22;2105;52.300;9.182;2023-12-20T01:46:14;6.40;99.90
4183;DHT22;2105;52.300;9.182;2023-12-20T01:48:41;6.50;99.90
4183;DHT22;2105;52.300;9.182;2023-12-20T01:51:10;6.50;99.90
4183;DHT22;2105;52.300;9.182;2023-12-20T01:53:38;6.40;99.90
4183;DHT22;2105;52.300;9.182;2023-12-20T01:56:06;6.40;99.90
4183;DHT22;2105;52.300;9.182;2023-12-20T01:58:33;6.30;99.90
4183;DHT22;2105;52.300;9.182;2023-12-20T02:01:00;6.30;99.90
4183;DHT22;2105;52.300;9.182;2023-12-20T02:03:27;6.20;99.90
4183;DHT22;2105;52.300;9.182;2023-12-20T02:05:54;6.20;99.90
4183;DHT22;2105;52.300;9.182;2023-12-20T02:08:22;6.10;99.90
4183;DHT22;2105;52.300;9.182;2023-12-20T02:10:49;6.10;99.90
4183;DHT22;2105;52.300;9.182;2023-12-20T02:13:16;6.10;99.90
4183;DHT22;2105;52.300;9.182;2023-12-20T02:15:42;6.00;99.90
4183;DHT22;2105;52.300;9.182;2023-12-20T02:18:09;6.00;99.90
4183;DHT22;2105;52.300;9.182;2023-12-20T02:20:36;6.00;99.90
4183;DHT22;2105;52.300;9.182;2023-12-20T02:23:04;6.00;99.90
4183;DHT22;2105;52.300;9.182;2023-12-20T02:25:30;6.00;99.90
4183;DHT22;2105;52.300;9.182;2023-12-20T02:27:57;6.00;99.90
4183;DHT22;2105;52.300;9.182;2023-12-20T02:30:24;6.00;99.90
4183;DHT22;2105;52.300;9.182;2023-12-20T02:32:51;6.00;99.90
4183;DHT22;2105;52.300;9.182;2023-12-20T02:35:18;6.10;99.90
4183;DHT22;2105;52.300;9.182;2023-12-20T02:37:45;6.10;99.90
4183;DHT22;2105;52.300;9.182;2023-12-20T02:40:13;6.10;99.90
4183;DHT22;2105;52.300;9.182;2023-12-20T02:42:40;6.10;99.90
4183;DHT22;2105;52.300;9.182;2023-12-20T02:45:07;6.00;99.90
4183;DHT22;2105;52.300;9.182;2023-12-20T02:47:34;6.00;99.90
4183;DHT22;2105;52.300;9.182;2023-12-20T02:50:00;6.00;99.90
4183;DHT22;2105;52.300;9.182;2023-12-20T02:52:28;6.00;99.90
4183;DHT22;2105;52.300;9.182;2023-12-20T02:54:55;6.00;99.90
4183;DHT22;2105;52.300;9.182;2023-12-20T02:57:23;5.90;99.90
4183;DHT22;2105;52.300;9.182;2023-12-20T02:59:49;6.00;99.90
4183;DHT22;2105;52.300;9.182;2023-12-20T03:02:16;6.00;99.90
4183;DHT22;2105;52.300;9.182;2023-12-20T03:04:42;5.90;99.90
4183;DHT22;2105;52.300;9.182;2023-12-20T03:07:09;5.90;99.90
4183;DHT22;2105;52.300;9.182;2023-12-20T03:09:37;5.90;99.90
4183;DHT22;2105;52.300;9.182;2023-12-20T03:12:04;5.90;99.90
4183;DHT22;2105;52.300;9.182;2023-12-20T03:14:32;5.90;99.90
4183;DHT22;2105;52.300;9.182;2023-12-20T03:16:58;5.90;99.90
4183;DHT22;2105;52.300;9.182;2023-12-20T03:19:25;5.90;99.90
4183;DHT22;2105;52.300;9.182;2023-12-20T03:21:51;5.80;99.90
4183;DHT22;2105;52.300;9.182;2023-12-20T03:24:19;5.80;99.90
4183;DHT22;2105;52.300;9.182;2023-12-20T03:26:45;5.80;99.90
4183;DHT22;2105;52.300;9.182;2023-12-20T03:29:12;5.80;99.90
4183;DHT22;2105;52.300;9.182;2023-12-20T03:31:39;5.90;99.90
4183;DHT22;2105;52.300;9.182;2023-12-20T03:34:06;5.90;99.90
4183;DHT22;2105;52.300;9.182;2023-12-20T03:36:33;5.90;99.90
4183;DHT22;2105;52.300;9.182;2023-12-20T03:38:59;6.00;99.90
4183;DHT22;2105;52.300;9.182;2023-12-20T03:41:26;6.00;99.90
4183;DHT22;2105;52.300;9.182;2023-12-20T03:43:52;6.00;99.90
4183;DHT22;2105;52.300;9.182;2023-12-20T03:46:19;6.00;99.90
4183;DHT22;2105;52.300;9.182;2023-12-20T03:48:47;6.00;99.90
4183;DHT22;2105;52.300;9.182;2023-12-20T03:51:13;6.00;99.90
4183;DHT22;2105;52.300;9.182;2023-12-20T03:53:40;6.00;99.90
4183;DHT22;2105;52.300;9.182;2023-12-20T03:56:07;6.00;99.90
4183;DHT22;2105;52.300;9.182;2023-12-20T03:58:33;6.10;99.90
4183;DHT22;2105;52.300;9.182;2023-12-20T04:01:00;6.10;99.90
4183;DHT22;2105;52.300;9.182;2023-12-20T04:03:26;6.10;99.90
4183;DHT22;2105;52.300;9.182;2023-12-20T04:05:54;6.10;99.90
4183;DHT22;2105;52.300;9.182;2023-12-20T04:08:21;6.10;99.90
4183;DHT22;2105;52.300;9.182;2023-12-20T04:10:47;6.10;99.90
4183;DHT22;2105;52.300;9.182;2023-12-20T04:13:14;6.10;99.90
4183;DHT22;2105;52.300;9.182;2023-12-20T04:15:40;6.10;99.90
4183;DHT22;2105;52.300;9.182;2023-12-20T04:18:07;6.10;99.90
4183;DHT22;2105;52.300;9.182;2023-12-20T04:20:34;6.00;99.90
4183;DHT22;2105;52.300;9.182;2023-12-20T04:23:01;6.10;99.90
4183;DHT22;2105;52.300;9.182;2023-12-20T04:25:28;6.10;99.90
4183;DHT22;2105;52.300;9.182;2023-12-20T04:27:55;6.10;99.90
4183;DHT22;2105;52.300;9.182;2023-12-20T04:30:21;6.10;99.90
4183;DHT22;2105;52.300;9.182;2023-12-20T04:32:48;6.10;99.90
4183;DHT22;2105;52.300;9.182;2023-12-20T04:35:14;6.10;99.90
4183;DHT22;2105;52.300;9.182;2023-12-20T04:37:41;6.20;99.90
4183;DHT22;2105;52.300;9.182;2023-12-20T04:40:09;6.20;99.90
4183;DHT22;2105;52.300;9.182;2023-12-20T04:42:37;6.20;99.90
4183;DHT22;2105;52.300;9.182;2023-12-20T04:45:04;6.20;99.90
4183;DHT22;2105;52.300;9.182;2023-12-20T04:47:31;6.20;99.90
4183;DHT22;2105;52.300;9.182;2023-12-20T04:49:57;6.20;99.90
4183;DHT22;2105;52.300;9.182;2023-12-20T04:52:24;6.30;99.90
4183;DHT22;2105;52.300;9.182;2023-12-20T04:54:51;6.30;99.90
4183;DHT22;2105;52.300;9.182;2023-12-20T04:57:19;6.30;99.90
4183;DHT22;2105;52.300;9.182;2023-12-20T04:59:46;6.30;99.90
4183;DHT22;2105;52.300;9.182;2023-12-20T05:02:12;6.30;99.90
4183;DHT22;2105;52.300;9.182;2023-12-20T05:04:39;6.30;99.90
4183;DHT22;2105;52.300;9.182;2023-12-20T05:07:06;6.30;99.90
4183;DHT22;2105;52.300;9.182;2023-12-20T05:09:33;6.30;99.90
4183;DHT22;2105;52.300;9.182;2023-12-20T05:14:29;6.30;99.90
4183;DHT22;2105;52.300;9.182;2023-12-20T05:16:56;6.30;99.90
4183;DHT22;2105;52.300;9.182;2023-12-20T05:19:23;6.30;99.90
4183;DHT22;2105;52.300;9.182;2023-12-20T05:21:49;6.20;99.90
4183;DHT22;2105;52.300;9.182;2023-12-20T05:24:16;6.20;99.90
4183;DHT22;2105;52.300;9.182;2023-12-20T05:26:42;6.20;99.90
4183;DHT22;2105;52.300;9.182;2023-12-20T05:29:09;6.20;99.90
4183;DHT22;2105;52.300;9.182;2023-12-20T05:31:37;6.10;99.90
4183;DHT22;2105;52.300;9.182;2023-12-20T05:34:03;6.10;99.90
4183;DHT22;2105;52.300;9.182;2023-12-20T05:36:30;6.10;99.90
4183;DHT22;2105;52.300;9.182;2023-12-20T05:38:57;6.10;99.90
4183;DHT22;2105;52.300;9.182;2023-12-20T05:41:23;6.10;99.90
4183;DHT22;2105;52.300;9.182;2023-12-20T05:43:50;6.10;99.90
4183;DHT22;2105;52.300;9.182;2023-12-20T05:46:16;6.10;99.90
4183;DHT22;2105;52.300;9.182;2023-12-20T05:48:44;6.10;99.90
4183;DHT22;2105;52.300;9.182;2023-12-20T05:51:11;6.10;99.90
4183;DHT22;2105;52.300;9.182;2023-12-20T05:53:38;6.10;99.90
4183;DHT22;2105;52.300;9.182;2023-12-20T05:56:05;6.20;99.90
4183;DHT22;2105;52.300;9.182;2023-12-20T05:58:32;6.20;99.90
4183;DHT22;2105;52.300;9.182;2023-12-20T06:00:59;6.20;99.90
4183;DHT22;2105;52.300;9.182;2023-12-20T06:03:25;6.20;99.90
4183;DHT22;2105;52.300;9.182;2023-12-20T06:05:53;6.10;99.90
4183;DHT22;2105;52.300;9.182;2023-12-20T06:08:20;6.10;99.90
4183;DHT22;2105;52.300;9.182;2023-12-20T06:10:46;6.10;99.90
4183;DHT22;2105;52.300;9.182;2023-12-20T06:13:13;6.10;99.90
4183;DHT22;2105;52.300;9.182;2023-12-20T06:15:39;6.10;99.90
4183;DHT22;2105;52.300;9.182;2023-12-20T06:18:06;6.10;99.90
4183;DHT22;2105;52.300;9.182;2023-12-20T06:20:33;6.10;99.90
4183;DHT22;2105;52.300;9.182;2023-12-20T06:23:01;6.10;99.90
4183;DHT22;2105;52.300;9.182;2023-12-20T06:25:27;6.10;99.90
4183;DHT22;2105;52.300;9.182;2023-12-20T06:27:54;6.10;99.90
4183;DHT22;2105;52.300;9.182;2023-12-20T06:30:21;6.10;99.90
4183;DHT22;2105;52.300;9.182;2023-12-20T06:32:48;6.00;99.90
4183;DHT22;2105;52.300;9.182;2023-12-20T06:35:14;6.00;99.90
4183;DHT22;2105;52.300;9.182;2023-12-20T06:37:41;6.00;99.90
4183;DHT22;2105;52.300;9.182;2023-12-20T06:40:10;6.00;99.90
4183;DHT22;2105;52.300;9.182;2023-12-20T06:42:37;6.00;99.90
4183;DHT22;2105;52.300;9.182;2023-12-20T06:45:04;6.00;99.90
4183;DHT22;2105;52.300;9.182;2023-12-20T06:47:31;6.00;99.90
4183;DHT22;2105;52.300;9.182;2023-12-20T06:49:58;6.10;99.90
4183;DHT22;2105;52.300;9.182;2023-12-20T06:52:25;6.10;99.90
4183;DHT22;2105;52.300;9.182;2023-12-20T06:54:51;6.10;99.90
4183;DHT22;2105;52.300;9.182;2023-12-20T06:57:19;6.10;99.90
4183;DHT22;2105;52.300;9.182;2023-12-20T06:59:46;6.10;99.90
4183;DHT22;2105;52.300;9.182;2023-12-20T07:02:12;6.10;99.90
4183;DHT22;2105;52.300;9.182;2023-12-20T07:04:39;6.10;99.90
4183;DHT22;2105;52.300;9.182;2023-12-20T07:07:06;6.10;99.90
4183;DHT22;2105;52.300;9.182;2023-12-20T07:09:33;6.10;99.90
4183;DHT22;2105;52.300;9.182;2023-12-20T07:11:59;6.10;99.90
4183;DHT22;2105;52.300;9.182;2023-12-20T07:14:27;6.10;99.90
4183;DHT22;2105;52.300;9.182;2023-12-20T07:16:54;6.10;99.90
4183;DHT22;2105;52.300;9.182;2023-12-20T07:19:21;6.10;99.90
4183;DHT22;2105;52.300;9.182;2023-12-20T07:21:47;6.10;99.90
4183;DHT22;2105;52.300;9.182;2023-12-20T07:24:14;6.20;99.90
4183;DHT22;2105;52.300;9.182;2023-12-20T07:26:41;6.20;99.90
4183;DHT22;2105;52.300;9.182;2023-12-20T07:29:08;6.20;99.90
4183;DHT22;2105;52.300;9.182;2023-12-20T07:31:36;6.20;99.90
4183;DHT22;2105;52.300;9.182;2023-12-20T07:34:03;6.20;99.90
4183;DHT22;2105;52.300;9.182;2023-12-20T07:36:46;6.20;99.90
4183;DHT22;2105;52.300;9.182;2023-12-20T07:39:14;6.20;99.90
4183;DHT22;2105;52.300;9.182;2023-12-20T07:41:40;6.20;99.90
4183;DHT22;2105;52.300;9.182;2023-12-20T07:44:07;6.20;99.90
4183;DHT22;2105;52.300;9.182;2023-12-20T07:46:35;6.20;99.90
4183;DHT22;2105;52.300;9.182;2023-12-20T07:49:02;6.20;99.90
4183;DHT22;2105;52.300;9.182;2023-12-20T07:51:28;6.20;99.90
4183;DHT22;2105;52.300;9.182;2023-12-20T07:53:55;6.20;99.90
4183;DHT22;2105;52.300;9.182;2023-12-20T07:56:21;6.20;99.90
4183;DHT22;2105;52.300;9.182;2023-12-20T07:58:48;6.20;99.90
4183;DHT22;2105;52.300;9.182;2023-12-20T08:01:16;6.20;99.90
4183;DHT22;2105;52.300;9.182;2023-12-20T08:03:45;6.20;99.90
4183;DHT22;2105;52.300;9.182;2023-12-20T08:06:11;6.20;99.90
4183;DHT22;2105;52.300;9.182;2023-12-20T08:08:38;6.20;99.90
4183;DHT22;2105;52.300;9.182;2023-12-20T08:11:05;6.20;99.90
4183;DHT22;2105;52.300;9.182;2023-12-20T08:13:31;6.30;99.90
4183;DHT22;2105;52.300;9.182;2023-12-20T08:15:58;6.30;99.90
4183;DHT22;2105;52.300;9.182;2023-12-20T08:18:24;6.30;99.90
4183;DHT22;2105;52.300;9.182;2023-12-20T08:20:52;6.30;99.90
4183;DHT22;2105;52.300;9.182;2023-12-20T08:23:19;6.30;99.90
4183;DHT22;2105;52.300;9.182;2023-12-20T08:25:46;6.30;99.90
4183;DHT22;2105;52.300;9.182;2023-12-20T08:28:13;6.30;99.90
4183;DHT22;2105;52.300;9.182;2023-12-20T08:30:40;6.30;99.90
4183;DHT22;2105;52.300;9.182;2023-12-20T08:33:07;6.40;99.90
4183;DHT22;2105;52.300;9.182;2023-12-20T08:35:36;6.40;99.90
4183;DHT22;2105;52.300;9.182;2023-12-20T08:38:04;6.40;99.90
4183;DHT22;2105;52.300;9.182;2023-12-20T08:40:31;6.40;99.90
4183;DHT22;2105;52.300;9.182;2023-12-20T08:42:57;6.40;99.90
4183;DHT22;2105;52.300;9.182;2023-12-20T08:45:24;6.40;99.90
4183;DHT22;2105;52.300;9.182;2023-12-20T08:47:51;6.30;99.90
4183;DHT22;2105;52.300;9.182;2023-12-20T08:50:17;6.40;99.90
4183;DHT22;2105;52.300;9.182;2023-12-20T08:52:44;6.30;99.90
4183;DHT22;2105;52.300;9.182;2023-12-20T08:55:12;6.40;99.90
4183;DHT22;2105;52.300;9.182;2023-12-20T08:57:40;6.40;99.90
4183;DHT22;2105;52.300;9.182;2023-12-20T09:00:08;6.40;99.90
4183;DHT22;2105;52.300;9.182;2023-12-20T09:02:34;6.40;99.90
4183;DHT22;2105;52.300;9.182;2023-12-20T09:05:01;6.40;99.90
4183;DHT22;2105;52.300;9.182;2023-12-20T09:07:28;6.40;99.90
4183;DHT22;2105;52.300;9.182;2023-12-20T09:09:56;6.40;99.90
4183;DHT22;2105;52.300;9.182;2023-12-20T09:12:24;6.40;99.90
4183;DHT22;2105;52.300;9.182;2023-12-20T09:14:51;6.50;99.90
4183;DHT22;2105;52.300;9.182;2023-12-20T09:17:19;6.50;99.90
4183;DHT22;2105;52.300;9.182;2023-12-20T09:19:46;6.50;99.90
4183;DHT22;2105;52.300;9.182;2023-12-20T09:22:12;6.50;99.90
4183;DHT22;2105;52.300;9.182;2023-12-20T09:24:39;6.50;99.90
4183;DHT22;2105;52.300;9.182;2023-12-20T09:27:06;6.50;99.90
4183;DHT22;2105;52.300;9.182;2023-12-20T09:29:34;6.60;99.90
4183;DHT22;2105;52.300;9.182;2023-12-20T09:32:00;6.60;99.90
4183;DHT22;2105;52.300;9.182;2023-12-20T09:34:27;6.60;99.90
4183;DHT22;2105;52.300;9.182;2023-12-20T09:36:54;6.60;99.90
4183;DHT22;2105;52.300;9.182;2023-12-20T09:39:21;6.60;99.90
4183;DHT22;2105;52.300;9.182;2023-12-20T09:41:56;6.70;99.90
4183;DHT22;2105;52.300;9.182;2023-12-20T09:44:26;6.70;99.90
4183;DHT22;2105;52.300;9.182;2023-12-20T09:46:55;6.80;99.90
4183;DHT22;2105;52.300;9.182;2023-12-20T09:49:22;6.80;99.90
4183;DHT22;2105;52.300;9.182;2023-12-20T09:51:50;6.80;99.90
4183;DHT22;2105;52.300;9.182;2023-12-20T09:54:18;6.80;99.90
4183;DHT22;2105;52.300;9.182;2023-12-20T09:56:45;6.80;99.90
4183;DHT22;2105;52.300;9.182;2023-12-20T09:59:11;6.80;99.90
4183;DHT22;2105;52.300;9.182;2023-12-20T10:01:39;6.80;99.90
4183;DHT22;2105;52.300;9.182;2023-12-20T10:04:09;6.80;99.90
4183;DHT22;2105;52.300;9.182;2023-12-20T10:06:37;6.80;99.90
4183;DHT22;2105;52.300;9.182;2023-12-20T10:09:04;6.90;99.90
4183;DHT22;2105;52.300;9.182;2023-12-20T10:11:31;6.90;99.90
4183;DHT22;2105;52.300;9.182;2023-12-20T10:13:59;6.90;99.90
4183;DHT22;2105;52.300;9.182;2023-12-20T10:16:26;6.90;99.90
4183;DHT22;2105;52.300;9.182;2023-12-20T10:18:53;7.00;99.90
4183;DHT22;2105;52.300;9.182;2023-12-20T10:21:22;6.90;99.90
4183;DHT22;2105;52.300;9.182;2023-12-20T10:23:50;6.90;99.90
4183;DHT22;2105;52.300;9.182;2023-12-20T10:26:19;6.90;99.90
4183;DHT22;2105;52.300;9.182;2023-12-20T10:28:46;6.90;99.90
4183;DHT22;2105;52.300;9.182;2023-12-20T10:31:26;6.90;99.90
4183;DHT22;2105;52.300;9.182;2023-12-20T10:33:53;6.90;99.90
4183;DHT22;2105;52.300;9.182;2023-12-20T10:36:21;6.90;99.90
4183;DHT22;2105;52.300;9.182;2023-12-20T10:38:50;6.90;99.90
4183;DHT22;2105;52.300;9.182;2023-12-20T10:41:24;6.90;99.90
4183;DHT22;2105;52.300;9.182;2023-12-20T10:43:51;6.90;99.90
4183;DHT22;2105;52.300;9.182;2023-12-20T10:46:19;6.80;99.90
4183;DHT22;2105;52.300;9.182;2023-12-20T10:48:47;6.80;99.90
4183;DHT22;2105;52.300;9.182;2023-12-20T10:51:17;6.80;99.90
4183;DHT22;2105;52.300;9.182;2023-12-20T10:53:47;6.80;99.90
4183;DHT22;2105;52.300;9.182;2023-12-20T10:56:16;6.70;99.90
4183;DHT22;2105;52.300;9.182;2023-12-20T10:58:43;6.70;99.90
4183;DHT22;2105;52.300;9.182;2023-12-20T11:01:13;6.70;99.90
4183;DHT22;2105;52.300;9.182;2023-12-20T11:03:43;6.70;99.90
4183;DHT22;2105;52.300;9.182;2023-12-20T11:06:18;6.80;99.90
4183;DHT22;2105;52.300;9.182;2023-12-20T11:08:51;6.80;99.90
4183;DHT22;2105;52.300;9.182;2023-12-20T11:13:54;6.80;99.90
4183;DHT22;2105;52.300;9.182;2023-12-20T11:16:21;6.90;99.90
4183;DHT22;2105;52.300;9.182;2023-12-20T11:18:50;6.90;99.90
4183;DHT22;2105;52.300;9.182;2023-12-20T11:21:17;6.90;99.90
4183;DHT22;2105;52.300;9.182;2023-12-20T11:23:46;6.90;99.90
4183;DHT22;2105;52.300;9.182;2023-12-20T11:26:16;7.00;99.90
4183;DHT22;2105;52.300;9.182;2023-12-20T11:28:43;6.90;99.90
4183;DHT22;2105;52.300;9.182;2023-12-20T11:31:14;6.90;99.90
4183;DHT22;2105;52.300;9.182;2023-12-20T11:33:42;7.00;99.90
4183;DHT22;2105;52.300;9.182;2023-12-20T11:36:13;7.00;99.90
4183;DHT22;2105;52.300;9.182;2023-12-20T11:38:54;7.00;99.90
4183;DHT22;2105;52.300;9.182;2023-12-20T11:41:22;7.00;99.90
4183;DHT22;2105;52.300;9.182;2023-12-20T11:43:53;7.00;99.90
4183;DHT22;2105;52.300;9.182;2023-12-20T11:46:20;7.00;99.90
4183;DHT22;2105;52.300;9.182;2023-12-20T11:48:48;7.00;99.90
4183;DHT22;2105;52.300;9.182;2023-12-20T11:51:15;7.00;99.90
4183;DHT22;2105;52.300;9.182;2023-12-20T11:53:42;6.80;99.90
4183;DHT22;2105;52.300;9.182;2023-12-20T11:56:10;6.00;99.90
4183;DHT22;2105;52.300;9.182;2023-12-20T11:58:37;5.40;99.90
4183;DHT22;2105;52.300;9.182;2023-12-20T12:01:05;5.10;99.90
4183;DHT22;2105;52.300;9.182;2023-12-20T12:03:33;5.00;99.90
4183;DHT22;2105;52.300;9.182;2023-12-20T12:06:00;5.00;99.90
4183;DHT22;2105;52.300;9.182;2023-12-20T12:08:27;4.90;99.90
4183;DHT22;2105;52.300;9.182;2023-12-20T12:10:54;4.90;99.90
4183;DHT22;2105;52.300;9.182;2023-12-20T12:13:22;4.90;99.90
4183;DHT22;2105;52.300;9.182;2023-12-20T12:15:53;4.80;99.90
4183;DHT22;2105;52.300;9.182;2023-12-20T12:18:19;4.90;99.90
4183;DHT22;2105;52.300;9.182;2023-12-20T12:20:46;5.00;99.90
4183;DHT22;2105;52.300;9.182;2023-12-20T12:23:13;5.10;99.90
4183;DHT22;2105;52.300;9.182;2023-12-20T12:25:40;5.10;99.90
4183;DHT22;2105;52.300;9.182;2023-12-20T12:28:06;5.10;99.90
4183;DHT22;2105;52.300;9.182;2023-12-20T12:30:34;5.20;99.90
4183;DHT22;2105;52.300;9.182;2023-12-20T12:33:02;5.20;99.90
4183;DHT22;2105;52.300;9.182;2023-12-20T12:35:29;5.30;99.90
4183;DHT22;2105;52.300;9.182;2023-12-20T12:37:59;5.30;99.90
4183;DHT22;2105;52.300;9.182;2023-12-20T12:40:25;5.40;99.90
4183;DHT22;2105;52.300;9.182;2023-12-20T12:42:52;5.50;99.90
4183;DHT22;2105;52.300;9.182;2023-12-20T12:45:19;5.50;99.90
4183;DHT22;2105;52.300;9.182;2023-12-20T12:47:46;5.60;99.90
4183;DHT22;2105;52.300;9.182;2023-12-20T12:50:13;5.60;99.90
4183;DHT22;2105;52.300;9.182;2023-12-20T12:52:40;5.60;99.90
4183;DHT22;2105;52.300;9.182;2023-12-20T12:55:07;5.70;99.90
4183;DHT22;2105;52.300;9.182;2023-12-20T12:57:34;5.70;99.90
4183;DHT22;2105;52.300;9.182;2023-12-20T13:00:00;5.70;99.90
4183;DHT22;2105;52.300;9.182;2023-12-20T13:02:28;5.70;99.90
4183;DHT22;2105;52.300;9.182;2023-12-20T13:04:56;5.80;99.90
4183;DHT22;2105;52.300;9.182;2023-12-20T13:07:22;5.80;99.90
4183;DHT22;2105;52.300;9.182;2023-12-20T13:09:49;5.80;99.90
4183;DHT22;2105;52.300;9.182;2023-12-20T13:12:16;5.80;99.90
4183;DHT22;2105;52.300;9.182;2023-12-20T13:14:42;5.90;99.90
4183;DHT22;2105;52.300;9.182;2023-12-20T13:17:09;5.90;99.90
4183;DHT22;2105;52.300;9.182;2023-12-20T13:19:36;6.00;99.90
4183;DHT22;2105;52.300;9.182;2023-12-20T13:22:04;6.00;99.90
4183;DHT22;2105;52.300;9.182;2023-12-20T13:24:31;6.10;99.90
4183;DHT22;2105;52.300;9.182;2023-12-20T13:26:58;6.10;99.90
4183;DHT22;2105;52.300;9.182;2023-12-20T13:29:25;6.20;99.90
4183;DHT22;2105;52.300;9.182;2023-12-20T13:31:52;6.30;99.90
4183;DHT22;2105;52.300;9.182;2023-12-20T13:34:19;6.30;99.90
4183;DHT22;2105;52.300;9.182;2023-12-20T13:36:46;6.30;99.90
4183;DHT22;2105;52.300;9.182;2023-12-20T13:39:16;6.30;99.90
4183;DHT22;2105;52.300;9.182;2023-12-20T13:41:43;6.30;99.90
4183;DHT22;2105;52.300;9.182;2023-12-20T13:44:10;6.30;99.90
4183;DHT22;2105;52.300;9.182;2023-12-20T13:46:37;6.30;99.90
4183;DHT22;2105;52.300;9.182;2023-12-20T13:49:04;6.30;99.90
4183;DHT22;2105;52.300;9.182;2023-12-20T13:51:31;6.30;99.90
4183;DHT22;2105;52.300;9.182;2023-12-20T13:53:58;6.30;99.90
4183;DHT22;2105;52.300;9.182;2023-12-20T13:56:26;6.30;99.90
4183;DHT22;2105;52.300;9.182;2023-12-20T13:58:52;6.30;99.90
4183;DHT22;2105;52.300;9.182;2023-12-20T14:01:19;6.30;99.90
4183;DHT22;2105;52.300;9.182;2023-12-20T14:03:46;6.30;99.90
4183;DHT22;2105;52.300;9.182;2023-12-20T14:06:12;6.30;99.90
4183;DHT22;2105;52.300;9.182;2023-12-20T14:08:41;6.30;99.90
4183;DHT22;2105;52.300;9.182;2023-12-20T14:11:08;6.30;99.90
4183;DHT22;2105;52.300;9.182;2023-12-20T14:13:36;6.30;99.90
4183;DHT22;2105;52.300;9.182;2023-12-20T14:16:03;6.30;99.90
4183;DHT22;2105;52.300;9.182;2023-12-20T14:18:30;6.30;99.90
4183;DHT22;2105;52.300;9.182;2023-12-20T14:20:56;6.30;99.90
4183;DHT22;2105;52.300;9.182;2023-12-20T14:23:23;6.30;99.90
4183;DHT22;2105;52.300;9.182;2023-12-20T14:25:50;6.30;99.90
4183;DHT22;2105;52.300;9.182;2023-12-20T14:28:16;6.30;99.90
4183;DHT22;2105;52.300;9.182;2023-12-20T14:30:44;6.30;99.90
4183;DHT22;2105;52.300;9.182;2023-12-20T14:33:11;6.30;99.90
4183;DHT22;2105;52.300;9.182;2023-12-20T14:35:38;6.30;99.90
4183;DHT22;2105;52.300;9.182;2023-12-20T14:38:06;6.30;99.90
4183;DHT22;2105;52.300;9.182;2023-12-20T14:40:32;6.40;99.90
4183;DHT22;2105;52.300;9.182;2023-12-20T14:42:59;6.30;99.90
4183;DHT22;2105;52.300;9.182;2023-12-20T14:45:26;6.40;99.90
4183;DHT22;2105;52.300;9.182;2023-12-20T14:47:55;6.30;99.90
4183;DHT22;2105;52.300;9.182;2023-12-20T14:50:22;6.30;99.90
4183;DHT22;2105;52.300;9.182;2023-12-20T14:52:48;6.30;99.90
4183;DHT22;2105;52.300;9.182;2023-12-20T14:55:15;6.30;99.90
4183;DHT22;2105;52.300;9.182;2023-12-20T14:57:42;6.30;99.90
4183;DHT22;2105;52.300;9.182;2023-12-20T15:00:09;6.40;99.90
4183;DHT22;2105;52.300;9.182;2023-12-20T15:02:40;6.40;25.50
4183;DHT22;2105;52.300;9.182;2023-12-20T15:05:08;6.40;1.00
4183;DHT22;2105;52.300;9.182;2023-12-20T15:07:35;6.40;1.00
4183;DHT22;2105;52.300;9.182;2023-12-20T15:10:02;6.40;28.10
4183;DHT22;2105;52.300;9.182;2023-12-20T15:12:28;6.40;99.90
4183;DHT22;2105;52.300;9.182;2023-12-20T15:14:55;6.40;99.90
4183;DHT22;2105;52.300;9.182;2023-12-20T15:17:22;6.40;99.90
4183;DHT22;2105;52.300;9.182;2023-12-20T15:19:48;6.40;99.90
4183;DHT22;2105;52.300;9.182;2023-12-20T15:22:16;6.30;99.90
4183;DHT22;2105;52.300;9.182;2023-12-20T15:24:43;6.30;99.90
4183;DHT22;2105;52.300;9.182;2023-12-20T15:27:11;6.30;99.90
4183;DHT22;2105;52.300;9.182;2023-12-20T15:29:38;6.30;99.90
4183;DHT22;2105;52.300;9.182;2023-12-20T15:32:05;6.30;99.90
4183;DHT22;2105;52.300;9.182;2023-12-20T15:34:32;6.20;99.90
4183;DHT22;2105;52.300;9.182;2023-12-20T15:36:58;6.20;99.90
4183;DHT22;2105;52.300;9.182;2023-12-20T15:39:26;6.10;99.90
4183;DHT22;2105;52.300;9.182;2023-12-20T15:41:53;6.10;99.90
4183;DHT22;2105;52.300;9.182;2023-12-20T15:44:20;6.10;99.90
4183;DHT22;2105;52.300;9.182;2023-12-20T15:46:46;6.00;99.90
4183;DHT22;2105;52.300;9.182;2023-12-20T15:49:13;6.00;99.90
4183;DHT22;2105;52.300;9.182;2023-12-20T15:51:42;5.90;99.90
4183;DHT22;2105;52.300;9.182;2023-12-20T15:54:09;5.90;99.90
4183;DHT22;2105;52.300;9.182;2023-12-20T15:56:37;5.80;99.90
4183;DHT22;2105;52.300;9.182;2023-12-20T15:59:06;5.80;99.90
4183;DHT22;2105;52.300;9.182;2023-12-20T16:01:33;5.80;99.90
4183;DHT22;2105;52.300;9.182;2023-12-20T16:04:01;5.80;99.90
4183;DHT22;2105;52.300;9.182;2023-12-20T16:06:27;5.70;99.90
4183;DHT22;2105;52.300;9.182;2023-12-20T16:08:54;5.70;99.90
4183;DHT22;2105;52.300;9.182;2023-12-20T16:11:21;5.70;99.90
4183;DHT22;2105;52.300;9.182;2023-12-20T16:13:49;5.70;99.90
4183;DHT22;2105;52.300;9.182;2023-12-20T16:16:16;5.70;99.90
4183;DHT22;2105;52.300;9.182;2023-12-20T16:18:43;5.70;99.90
4183;DHT22;2105;52.300;9.182;2023-12-20T16:21:09;5.80;99.90